Time;durP1;ratioP1;P1;durP2;ratioP2;P2;SDS_P1;SDS_P2;PMS_P1;PMS_P2;Temp;Humidity;BMP_temperature;BMP_pressure;BME280_temperature;BME280_humidity;BME280_pressure;Samples;Min_cycle;Max_cycle;Signal;HPM_P1;HPM_P2
2022/09/03 00:01:01;;;;;;;3.90;2.50;;;;;;;18.74;67.77;99049.38;4913883;29;20976;-77
2022/09/03 00:03:42;;;;;;;4.87;3.23;;;;;;;18.72;67.75;99059.38;4946808;29;20464;-77
2022/09/03 00:06:23;;;;;;;3.47;2.83;;;;;;;18.68;67.83;99056.16;4948067;29;20457;-77
2022/09/03 00:09:03;;;;;;;3.23;2.63;;;;;;;18.69;68.06;99057.84;4947054;28;20457;-77
2022/09/03 00:11:42;;;;;;;2.33;2.13;;;;;;;18.71;67.84;99063.00;4935696;29;20575;-77
2022/09/03 00:14:18;;;;;;;3.40;3.10;;;;;;;18.72;67.87;99052.22;4947627;29;20444;-77
2022/09/03 00:17:02;;;;;;;2.90;2.30;;;;;;;18.70;68.18;99053.38;4947083;28;20468;-76
2022/09/03 00:19:32;;;;;;;4.40;3.30;;;;;;;18.68;68.27;99047.38;4946527;29;20847;-77
2022/09/03 00:22:06;;;;;;;6.50;3.73;;;;;;;18.64;68.37;99044.22;4928889;28;20484;-77
2022/09/03 00:24:37;;;;;;;4.90;2.50;;;;;;;18.63;68.56;99047.84;4929290;28;20487;-77
2022/09/03 00:27:10;;;;;;;3.50;3.10;;;;;;;18.63;68.21;99055.00;4943616;29;20567;-77
2022/09/03 00:29:42;;;;;;;10.23;6.37;;;;;;;18.63;68.33;99049.69;4939504;28;21032;-77
2022/09/03 00:32:19;;;;;;;4.83;3.87;;;;;;;18.64;68.77;99049.53;4943809;28;20469;-77
2022/09/03 00:34:50;;;;;;;4.63;3.30;;;;;;;18.60;68.61;99042.84;4945924;29;20462;-77
2022/09/03 00:37:15;;;;;;;5.30;3.07;;;;;;;18.58;69.00;99045.69;4939527;28;20978;-77
2022/09/03 00:39:41;;;;;;;4.07;3.20;;;;;;;18.55;68.99;99035.38;4946136;29;20646;-76
2022/09/03 00:42:22;;;;;;;5.83;3.63;;;;;;;18.50;69.39;99042.19;4944248;28;20225;-77
2022/09/03 00:45:15;;;;;;;4.50;3.70;;;;;;;18.54;69.44;99030.22;4941724;29;20559;-77
2022/09/03 00:47:57;;;;;;;3.70;3.27;;;;;;;18.55;69.26;99034.53;4940425;28;21095;-77
2022/09/03 00:50:41;;;;;;;4.43;3.73;;;;;;;18.58;69.37;99028.91;4945874;29;20584;-77
2022/09/03 00:53:18;;;;;;;3.80;3.43;;;;;;;18.58;69.16;99036.88;4942368;29;20473;-77
2022/09/03 00:55:57;;;;;;;5.33;3.40;;;;;;;18.60;69.17;99034.88;4943901;29;20522;-77
2022/09/03 00:58:55;;;;;;;5.50;2.90;;;;;;;18.55;69.44;99035.38;4945213;29;20463;-77
2022/09/03 01:01:28;;;;;;;5.60;3.17;;;;;;;18.59;69.16;99030.56;4931755;28;20952;-77
2022/09/03 01:04:00;;;;;;;6.60;4.10;;;;;;;18.67;69.59;99037.72;4933517;29;20529;-77
2022/09/03 01:06:41;;;;;;;5.20;4.33;;;;;;;18.70;69.41;99035.56;4925537;29;20458;-77
2022/09/03 01:09:25;;;;;;;3.93;3.30;;;;;;;18.71;69.31;99033.72;4924597;29;20848;-77
2022/09/03 01:12:04;;;;;;;5.33;3.67;;;;;;;18.77;69.09;99030.47;4927168;29;20473;-77
2022/09/03 01:14:42;;;;;;;4.67;3.90;;;;;;;18.76;69.17;99024.28;4927798;29;20545;-77
2022/09/03 01:17:17;;;;;;;8.43;3.50;;;;;;;18.76;68.57;99020.81;4930947;29;20465;-77
2022/09/03 01:20:01;;;;;;;3.83;2.93;;;;;;;18.75;68.91;99019.16;4923261;29;20457;-76
2022/09/03 01:22:42;;;;;;;4.60;3.43;;;;;;;18.68;69.00;99023.44;4927520;29;20488;-77
2022/09/03 01:25:21;;;;;;;4.80;3.80;;;;;;;18.67;69.21;99033.25;4917303;29;20465;-77
2022/09/03 01:27:56;;;;;;;4.40;3.30;;;;;;;18.67;68.91;99021.78;4936113;29;20571;-77
2022/09/03 01:30:22;;;;;;;5.17;3.00;;;;;;;18.68;68.90;99037.56;4922347;29;20464;-77
2022/09/03 01:33:13;;;;;;;5.07;3.40;;;;;;;18.66;68.83;99031.59;4944632;29;20455;-77
2022/09/03 01:35:46;;;;;;;3.90;3.33;;;;;;;18.62;69.11;99032.91;4932131;29;20456;-76
2022/09/03 01:38:20;;;;;;;3.40;3.10;;;;;;;18.58;69.06;99034.22;4929953;29;21149;-77
2022/09/03 01:42:14;;;;;;;4.20;3.40;;;;;;;18.58;69.17;99035.06;4915385;29;20456;-76
2022/09/03 01:43:56;;;;;;;3.07;2.77;;;;;;;18.61;69.13;99036.56;4938748;29;20555;-76
2022/09/03 01:46:36;;;;;;;4.73;3.37;;;;;;;18.63;69.05;99031.06;4929201;29;20819;-77
2022/09/03 01:49:21;;;;;;;4.57;4.00;;;;;;;18.65;69.22;99035.22;4943520;29;20496;-76
2022/09/03 01:52:08;;;;;;;4.30;3.53;;;;;;;18.63;69.06;99034.53;4928594;29;20476;-77
2022/09/03 01:55:01;;;;;;;4.50;3.20;;;;;;;18.64;69.39;99033.56;4898109;29;21112;-77
2022/09/03 01:57:55;;;;;;;4.00;3.60;;;;;;;18.64;69.24;99027.44;4925195;29;20508;-77
2022/09/03 02:00:20;;;;;;;3.73;3.37;;;;;;;18.57;69.42;99016.59;4914830;29;21008;-77
2022/09/03 02:02:49;;;;;;;4.30;2.97;;;;;;;18.54;69.50;99028.38;4929735;29;20521;-76
2022/09/03 02:05:23;;;;;;;4.70;3.10;;;;;;;18.55;69.42;99027.41;4936454;29;20229;-77
2022/09/03 02:08:04;;;;;;;3.87;3.47;;;;;;;18.57;69.52;99044.00;4936952;29;20480;-76
2022/09/03 02:10:58;;;;;;;4.03;2.90;;;;;;;18.58;69.52;99053.69;4934374;29;20467;-77
2022/09/03 02:13:27;;;;;;;4.63;2.87;;;;;;;18.60;69.47;99064.13;4943247;29;20460;-76
2022/09/03 02:15:57;;;;;;;4.50;3.07;;;;;;;18.64;68.92;99059.34;4927489;29;20457;-78
2022/09/03 02:18:25;;;;;;;3.37;2.77;;;;;;;18.61;69.35;99059.69;4930499;29;20464;-76
2022/09/03 02:20:55;;;;;;;6.40;3.30;;;;;;;18.57;69.48;99054.66;4929131;29;20495;-77
2022/09/03 02:23:22;;;;;;;3.23;2.83;;;;;;;18.55;69.50;99055.81;4929980;29;20511;-76
2022/09/03 02:25:54;;;;;;;5.20;3.73;;;;;;;18.57;69.53;99040.53;4927138;29;20457;-77
2022/09/03 02:28:19;;;;;;;4.87;3.30;;;;;;;18.53;69.77;99049.84;4927450;29;20480;-77
2022/09/03 02:30:45;;;;;;;3.40;3.10;;;;;;;18.52;69.46;99045.50;4927882;29;20854;-77
2022/09/03 02:33:11;;;;;;;3.20;2.90;;;;;;;18.52;69.80;99045.50;4926421;29;20198;-77
2022/09/03 02:35:36;;;;;;;3.53;3.20;;;;;;;18.53;69.75;99049.84;4928334;29;20208;-77
2022/09/03 02:38:35;;;;;;;3.30;3.00;;;;;;;18.52;69.70;99050.81;4926993;29;20213;-76
2022/09/03 02:41:01;;;;;;;5.87;3.00;;;;;;;18.50;69.60;99061.63;4909398;29;20210;-77
2022/09/03 02:44:01;;;;;;;3.60;3.00;;;;;;;18.51;69.70;99060.63;4924850;29;20841;-77
2022/09/03 02:46:35;;;;;;;5.40;4.03;;;;;;;18.48;69.72;99060.13;4916878;29;20301;-76
2022/09/03 02:49:00;;;;;;;2.80;2.57;;;;;;;18.45;69.86;99058.63;4927869;29;20454;-76
2022/09/03 02:51:30;;;;;;;3.90;2.53;;;;;;;18.46;69.70;99065.59;4927726;29;20489;-77
2022/09/03 02:53:55;;;;;;;6.93;2.97;;;;;;;18.49;69.75;99070.59;4923463;29;20731;-77
2022/09/03 02:56:26;;;;;;;3.57;2.93;;;;;;;18.53;69.81;99065.81;4926857;29;21036;-77
2022/09/03 02:58:52;;;;;;;4.30;3.20;;;;;;;18.54;69.59;99064.78;4928814;29;20216;-77
2022/09/03 03:01:17;;;;;;;6.37;3.40;;;;;;;18.50;69.66;99053.66;4927166;29;20481;-77
2022/09/03 03:03:43;;;;;;;4.80;3.73;;;;;;;18.49;70.23;99053.81;4909721;29;22928;-77
2022/09/03 03:06:09;;;;;;;3.40;3.10;;;;;;;18.48;70.29;99042.34;4923492;29;20205;-77
2022/09/03 03:08:34;;;;;;;3.80;3.20;;;;;;;18.47;70.41;99046.00;4927602;29;20295;-77
2022/09/03 03:11:00;;;;;;;3.23;2.47;;;;;;;18.49;70.28;99045.81;4928274;29;20445;-76
2022/09/03 03:13:27;;;;;;;5.40;4.50;;;;;;;18.45;70.19;99041.84;4927694;29;20609;-77
2022/09/03 03:15:58;;;;;;;2.30;2.10;;;;;;;18.37;70.12;99049.78;4927827;29;20449;-77
2022/09/03 03:18:23;;;;;;;5.00;3.00;;;;;;;18.29;70.26;99046.09;4927527;29;20576;-77
2022/09/03 03:20:49;;;;;;;3.40;2.70;;;;;;;18.22;70.51;99038.94;4928424;29;20663;-77
2022/09/03 03:23:14;;;;;;;6.47;2.80;;;;;;;18.23;70.51;99052.06;4924239;29;20321;-77
2022/09/03 03:25:39;;;;;;;3.60;3.00;;;;;;;18.28;70.18;99043.59;4925513;29;20746;-77
2022/09/03 03:28:06;;;;;;;2.60;2.10;;;;;;;18.32;70.15;99045.78;4922613;29;20216;-77
2022/09/03 03:30:32;;;;;;;2.97;2.50;;;;;;;18.32;70.38;99050.25;4925828;29;20284;-77
2022/09/03 03:32:57;;;;;;;3.20;2.60;;;;;;;18.30;70.01;99045.09;4920401;29;20456;-77
2022/09/03 03:35:23;;;;;;;3.50;3.20;;;;;;;18.31;70.23;99049.44;4897229;29;20492;-76
2022/09/03 03:37:49;;;;;;;2.67;2.47;;;;;;;18.36;70.05;99051.59;4925567;29;20202;-77
2022/09/03 03:40:16;;;;;;;3.73;2.60;;;;;;;18.41;69.95;99059.09;4921908;29;20460;-77
2022/09/03 03:42:41;;;;;;;5.40;2.90;;;;;;;18.45;69.76;99050.66;4917405;29;20232;-78
2022/09/03 03:45:08;;;;;;;3.87;3.00;;;;;;;18.52;69.60;99051.69;4915646;29;20468;-77
2022/09/03 03:47:35;;;;;;;3.00;2.70;;;;;;;18.56;69.26;99054.84;4916443;29;20217;-77
2022/09/03 03:50:00;;;;;;;4.00;2.60;;;;;;;18.58;69.25;99053.69;4916638;29;20551;-77
2022/09/03 03:52:27;;;;;;;2.90;2.60;;;;;;;18.60;69.07;99053.50;4915205;29;22398;-77
2022/09/03 03:54:53;;;;;;;3.13;2.40;;;;;;;18.58;69.31;99050.19;4920375;29;20552;-77
2022/09/03 03:57:20;;;;;;;3.37;2.80;;;;;;;18.52;69.61;99046.34;4916548;29;20551;-77
2022/09/03 03:59:46;;;;;;;2.90;2.60;;;;;;;18.49;69.42;99041.34;4926561;29;21026;-78
2022/09/03 04:02:13;;;;;;;3.23;2.40;;;;;;;18.46;69.91;99054.13;4941876;28;20483;-77
2022/09/03 04:04:38;;;;;;;4.70;3.00;;;;;;;18.42;69.67;99048.31;4935430;29;20521;-77
2022/09/03 04:07:03;;;;;;;3.00;2.77;;;;;;;18.39;69.84;99051.31;4930340;29;20461;-77
2022/09/03 04:09:29;;;;;;;3.33;2.30;;;;;;;18.40;70.14;99054.78;4929172;29;20233;-77
2022/09/03 04:11:56;;;;;;;3.03;2.10;;;;;;;18.43;69.80;99052.63;4929249;29;20222;-77
2022/09/03 04:14:22;;;;;;;3.00;2.70;;;;;;;18.47;69.86;99047.81;4939491;29;20748;-77
2022/09/03 04:16:49;;;;;;;2.53;2.33;;;;;;;18.51;69.90;99044.66;4928053;29;20568;-78
2022/09/03 04:19:16;;;;;;;3.00;2.27;;;;;;;18.53;69.93;99047.19;4930900;29;20481;-77
2022/09/03 04:21:42;;;;;;;4.53;2.90;;;;;;;18.54;69.74;99041.69;4926185;29;20496;-77
2022/09/03 04:24:07;;;;;;;4.07;2.70;;;;;;;18.55;69.59;99039.84;4928762;29;20457;-77
2022/09/03 04:26:33;;;;;;;3.43;2.60;;;;;;;18.55;69.65;99039.84;4926640;29;20992;-77
2022/09/03 04:29:01;;;;;;;3.70;2.80;;;;;;;18.56;69.66;99041.53;4930537;29;20201;-77
2022/09/03 04:31:26;;;;;;;3.27;2.77;;;;;;;18.55;69.61;99039.84;4928193;29;20480;-77
2022/09/03 04:33:51;;;;;;;2.70;2.50;;;;;;;18.56;69.75;99041.53;4927115;29;20448;-77
2022/09/03 04:36:20;;;;;;;3.30;3.00;;;;;;;18.56;69.63;99039.69;4925663;29;20209;-78
2022/09/03 04:38:47;;;;;;;3.00;2.80;;;;;;;18.57;69.40;99035.22;4926331;29;20423;-77
2022/09/03 04:41:16;;;;;;;3.10;2.80;;;;;;;18.57;69.69;99037.88;4925283;29;20647;-77
2022/09/03 04:43:43;;;;;;;3.00;2.57;;;;;;;18.57;69.44;99036.03;4926937;29;20571;-77
2022/09/03 04:46:10;;;;;;;4.67;3.87;;;;;;;18.55;69.52;99039.84;4924794;29;20468;-78
2022/09/03 04:48:36;;;;;;;6.70;2.83;;;;;;;18.53;69.47;99048.00;4925377;29;20497;-77
2022/09/03 04:51:04;;;;;;;3.03;2.83;;;;;;;18.51;69.32;99041.19;4924862;29;20539;-77
2022/09/03 04:53:29;;;;;;;5.10;4.70;;;;;;;18.53;69.28;99039.19;4920416;29;20470;-77
2022/09/03 04:55:55;;;;;;;4.63;2.67;;;;;;;18.55;68.91;99038.03;4924889;29;20463;-77
2022/09/03 04:58:20;;;;;;;3.17;2.87;;;;;;;18.58;68.75;99045.69;4922501;29;20623;-77
2022/09/03 05:00:46;;;;;;;3.43;2.87;;;;;;;18.59;68.66;99043.88;4923695;29;20232;-77
2022/09/03 05:03:11;;;;;;;2.53;2.33;;;;;;;18.60;68.63;99042.84;4919156;29;20217;-78
2022/09/03 05:05:36;;;;;;;2.80;2.60;;;;;;;18.62;68.44;99040.88;4925438;29;20271;-78
2022/09/03 05:08:02;;;;;;;2.63;2.43;;;;;;;18.64;68.34;99044.22;4916339;29;20899;-78
2022/09/03 05:10:29;;;;;;;3.93;3.00;;;;;;;18.67;68.15;99043.06;4925438;29;20271;-77
2022/09/03 05:12:59;;;;;;;3.97;2.80;;;;;;;18.72;67.60;99051.38;4925167;29;20477;-77
2022/09/03 05:15:25;;;;;;;3.70;3.40;;;;;;;18.72;67.64;99044.22;4920997;29;20479;-78
2022/09/03 05:17:55;;;;;;;3.40;3.10;;;;;;;18.74;67.37;99046.72;4926048;29;20621;-79
2022/09/03 05:20:20;;;;;;;5.33;3.17;;;;;;;18.73;67.30;99051.19;4921764;29;20486;-78
2022/09/03 05:22:46;;;;;;;3.50;3.20;;;;;;;18.75;67.57;99059.88;4915084;29;20904;-77
2022/09/03 05:25:11;;;;;;;3.33;3.03;;;;;;;18.73;67.32;99050.38;4925894;29;20213;-77
2022/09/03 05:27:36;;;;;;;6.20;3.03;;;;;;;18.70;67.27;99046.22;4924380;29;20226;-77
2022/09/03 05:30:02;;;;;;;5.30;3.50;;;;;;;18.69;67.42;99041.91;4926867;29;20721;-77
2022/09/03 05:32:29;;;;;;;4.30;3.63;;;;;;;18.69;67.71;99049.06;4928475;29;20116;-78
2022/09/03 05:34:55;;;;;;;3.60;3.30;;;;;;;18.69;67.50;99052.53;4927148;29;20457;-81
2022/09/03 05:37:22;;;;;;;3.40;2.70;;;;;;;18.72;67.79;99049.53;4926869;29;20457;-80
2022/09/03 05:39:47;;;;;;;5.50;2.97;;;;;;;18.76;67.52;99056.22;4938075;29;20895;-80
2022/09/03 05:42:13;;;;;;;3.63;2.63;;;;;;;18.82;67.07;99057.38;4930465;29;20492;-80
2022/09/03 05:44:39;;;;;;;6.20;3.90;;;;;;;18.84;67.35;99047.44;4921403;29;20217;-80
2022/09/03 05:47:04;;;;;;;3.93;3.53;;;;;;;18.85;67.29;99058.91;4927351;29;20958;-80
2022/09/03 05:49:30;;;;;;;4.37;3.10;;;;;;;18.86;67.33;99057.91;4932338;29;20675;-81
2022/09/03 05:51:56;;;;;;;3.83;3.37;;;;;;;18.86;67.28;99058.75;4933553;29;20292;-80
2022/09/03 05:54:21;;;;;;;3.50;3.17;;;;;;;18.87;67.78;99054.25;4914312;29;20555;-79
2022/09/03 05:56:47;;;;;;;3.90;3.50;;;;;;;18.90;67.52;99048.59;4924784;29;20212;-81
2022/09/03 05:59:12;;;;;;;4.93;3.00;;;;;;;18.98;67.59;99056.59;4936128;29;20201;-81
2022/09/03 06:01:41;;;;;;;3.27;2.83;;;;;;;19.07;67.29;99055.63;4940448;29;20585;-80
2022/09/03 06:04:09;;;;;;;5.23;2.80;;;;;;;19.12;67.13;99063.06;4933801;29;20574;-80
2022/09/03 06:06:37;;;;;;;5.87;3.27;;;;;;;19.19;67.01;99056.94;4941999;29;20750;-80
2022/09/03 06:09:15;;;;;;;3.13;2.60;;;;;;;19.23;67.20;99055.63;4935080;29;20461;-81
2022/09/03 06:11:41;;;;;;;4.47;3.33;;;;;;;19.31;66.98;99057.44;4932325;29;20892;-80
2022/09/03 06:14:09;;;;;;;3.73;3.07;;;;;;;19.36;67.06;99054.25;4934421;29;20484;-81
2022/09/03 06:16:37;;;;;;;4.40;3.60;;;;;;;19.38;67.25;99058.41;4933503;29;20514;-80
2022/09/03 06:19:08;;;;;;;5.97;3.97;;;;;;;19.39;67.04;99049.44;4934774;29;20470;-80
2022/09/03 06:21:39;;;;;;;4.50;3.25;;;;;;;19.42;66.98;99051.78;4931421;29;21014;-80
2022/09/03 06:24:05;;;;;;;6.33;4.60;;;;;;;19.47;67.13;99048.63;4930764;29;20286;-80
2022/09/03 06:26:30;;;;;;;4.10;2.90;;;;;;;19.57;66.86;99045.75;4932193;29;20926;-80
2022/09/03 06:28:56;;;;;;;4.60;3.90;;;;;;;19.67;66.44;99049.94;4932591;29;20698;-80
2022/09/03 06:31:23;;;;;;;3.53;3.17;;;;;;;19.85;66.28;99049.72;4929000;29;20288;-80
2022/09/03 06:33:48;;;;;;;5.07;4.23;;;;;;;20.02;65.58;99050.50;4920715;29;20479;-80
2022/09/03 06:36:16;;;;;;;4.33;3.93;;;;;;;20.17;65.36;99055.13;4919960;29;20462;-80
2022/09/03 06:38:43;;;;;;;5.03;3.70;;;;;;;20.28;64.86;99050.25;4920552;29;20221;-81
2022/09/03 06:41:11;;;;;;;5.20;3.80;;;;;;;20.37;64.45;99053.69;4920687;29;20484;-80
2022/09/03 06:43:39;;;;;;;5.70;4.20;;;;;;;20.48;64.37;99052.47;4924136;29;20862;-80
2022/09/03 06:46:06;;;;;;;6.07;3.23;;;;;;;20.57;63.89;99062.13;4920251;29;20470;-80
2022/09/03 06:48:34;;;;;;;4.57;3.30;;;;;;;20.65;63.73;99069.25;4928612;29;20549;-80
2022/09/03 06:51:01;;;;;;;3.40;3.10;;;;;;;20.69;63.54;99068.75;4928749;29;20462;-80
2022/09/03 06:53:32;;;;;;;3.20;2.90;;;;;;;20.71;63.59;99068.53;4922901;29;20458;-77
2022/09/03 06:56:00;;;;;;;3.20;2.90;;;;;;;20.70;63.69;99059.72;4928035;29;20478;-78
2022/09/03 06:58:30;;;;;;;4.33;3.40;;;;;;;20.70;63.46;99064.22;4933564;29;20502;-81
2022/09/03 07:01:07;;;;;;;4.60;4.20;;;;;;;20.73;63.45;99053.19;4936549;29;20453;-80
2022/09/03 07:03:37;;;;;;;3.72;3.42;;;;;;;20.83;63.21;99061.81;4930845;29;20800;-79
2022/09/03 07:06:05;;;;;;;4.80;2.80;;;;;;;20.94;62.84;99056.06;4932504;29;20207;-80
2022/09/03 07:08:32;;;;;;;10.53;3.70;;;;;;;21.06;62.33;99050.28;4925253;29;20470;-80
2022/09/03 07:11:04;;;;;;;5.17;4.67;;;;;;;21.11;62.46;99050.59;4927817;29;20481;-80
2022/09/03 07:13:29;;;;;;;3.27;2.97;;;;;;;21.13;62.03;99048.59;4925932;29;20975;-79
2022/09/03 07:16:03;;;;;;;4.60;4.00;;;;;;;21.22;61.91;99044.81;4928218;29;20466;-79
2022/09/03 07:18:30;;;;;;;3.70;3.20;;;;;;;21.42;61.35;99048.69;4931376;29;20624;-79
2022/09/03 07:21:00;;;;;;;4.57;3.40;;;;;;;21.64;60.57;99040.81;4930514;29;20546;-79
2022/09/03 07:23:25;;;;;;;3.30;2.80;;;;;;;21.85;60.09;99040.91;4931089;29;20482;-79
2022/09/03 07:26:11;;;;;;;5.07;3.10;;;;;;;21.98;59.04;99039.41;4928975;29;20487;-80
2022/09/03 07:28:38;;;;;;;4.13;2.27;;;;;;;22.24;58.10;99031.78;4926158;29;20254;-79
2022/09/03 07:31:13;;;;;;;3.60;2.90;;;;;;;22.74;57.05;99035.44;4924426;29;20446;-79
2022/09/03 07:33:40;;;;;;;4.53;2.50;;;;;;;23.39;55.37;99040.81;4930909;29;21127;-80
2022/09/03 07:36:13;;;;;;;2.73;2.47;;;;;;;23.96;53.30;99031.72;4926833;29;20429;-80
2022/09/03 07:38:39;;;;;;;2.77;2.53;;;;;;;24.23;52.36;99040.75;4926323;29;20481;-79
2022/09/03 07:41:07;;;;;;;2.77;2.13;;;;;;;24.29;51.81;99037.25;4923586;29;22724;-80
2022/09/03 07:43:47;;;;;;;2.70;2.50;;;;;;;24.20;51.74;99040.31;4931537;29;20478;-80
2022/09/03 07:46:22;;;;;;;2.87;2.57;;;;;;;24.14;51.99;99033.03;4927883;29;20443;-79
2022/09/03 07:48:49;;;;;;;2.97;2.47;;;;;;;24.14;52.01;99038.41;4929846;29;20420;-81
2022/09/03 07:51:16;;;;;;;5.40;2.80;;;;;;;24.17;52.22;99041.53;4933221;29;20675;-80
2022/09/03 07:53:43;;;;;;;3.23;2.80;;;;;;;24.21;52.01;99045.47;4926981;29;20441;-80
2022/09/03 07:56:16;;;;;;;2.60;2.37;;;;;;;24.19;51.82;99041.31;5070777;27;20524;-79
2022/09/03 07:58:42;;;;;;;4.20;2.87;;;;;;;24.13;52.07;99047.50;5060691;28;20661;-79
2022/09/03 08:01:13;;;;;;;3.03;2.83;;;;;;;24.23;51.99;99058.69;5063561;28;20337;-80
2022/09/03 08:03:42;;;;;;;3.70;3.40;;;;;;;24.55;51.04;99057.22;5046447;28;20189;-79
2022/09/03 08:06:08;;;;;;;3.27;2.40;;;;;;;24.88;50.48;99051.09;5051963;28;20417;-81
2022/09/03 08:08:36;;;;;;;3.07;2.87;;;;;;;25.02;49.89;99054.63;5045780;28;20436;-80
2022/09/03 08:11:12;;;;;;;2.20;1.90;;;;;;;25.01;49.71;99061.88;5061628;28;20182;-80
2022/09/03 08:13:42;;;;;;;2.90;2.53;;;;;;;25.21;49.25;99069.97;5054663;28;20416;-80
2022/09/03 08:16:08;;;;;;;3.27;2.97;;;;;;;25.47;48.87;99066.47;5060524;28;20485;-79
2022/09/03 08:18:38;;;;;;;3.10;2.30;;;;;;;25.81;47.95;99078.84;5054989;28;20915;-79
2022/09/03 08:21:09;;;;;;;2.47;1.97;;;;;;;26.23;46.91;99078.59;5040017;28;20478;-81
2022/09/03 08:23:39;;;;;;;2.63;2.40;;;;;;;26.52;46.67;99077.28;5052673;28;20422;-80
2022/09/03 08:26:05;;;;;;;2.00;1.83;;;;;;;26.76;45.76;99082.94;5048785;28;20440;-80
2022/09/03 08:28:33;;;;;;;2.40;1.93;;;;;;;26.62;45.17;99074.94;5062465;28;20523;-82
2022/09/03 08:31:10;;;;;;;5.00;1.80;;;;;;;26.30;45.03;99092.84;5062790;28;20432;-79
2022/09/03 08:33:36;;;;;;;2.78;2.30;;;;;;;25.96;45.84;99096.69;5059424;28;20430;-81
2022/09/03 08:36:04;;;;;;;2.40;1.87;;;;;;;25.67;46.86;99097.91;5044469;28;20201;-81
2022/09/03 08:38:32;;;;;;;2.93;2.30;;;;;;;25.36;47.60;99108.25;5054379;28;20421;-80
2022/09/03 08:41:05;;;;;;;3.83;2.43;;;;;;;25.09;48.13;99103.84;5049870;28;20452;-79
2022/09/03 08:43:55;;;;;;;2.37;2.00;;;;;;;24.91;48.92;99110.63;5044848;28;20670;-80
2022/09/03 08:48:58;;;;;;;2.80;1.90;;;;;;;24.67;49.36;99108.47;5209961;22;21053;-80
2022/09/03 08:51:26;;;;;;;3.67;2.23;;;;;;;24.58;49.65;99104.31;5082744;28;20461;-80
2022/09/03 08:53:56;;;;;;;2.13;1.93;;;;;;;24.54;49.98;99108.41;5083824;28;20549;-80
2022/09/03 08:56:34;;;;;;;2.77;2.40;;;;;;;24.58;49.67;99101.63;5080908;28;20839;-80
2022/09/03 08:59:00;;;;;;;2.40;2.20;;;;;;;24.64;49.35;99103.50;5088271;28;21082;-80
2022/09/03 09:01:44;;;;;;;2.23;1.83;;;;;;;24.60;49.61;99103.09;5084006;28;20792;-80
2022/09/03 09:04:18;;;;;;;3.30;2.40;;;;;;;24.65;50.30;99107.84;5082058;28;20481;-80
2022/09/03 09:06:44;;;;;;;4.80;2.77;;;;;;;24.60;50.19;99103.09;5073427;28;20228;-80
2022/09/03 09:09:29;;;;;;;3.00;2.27;;;;;;;24.60;50.27;99107.59;5074976;28;21005;-80
2022/09/03 09:12:17;;;;;;;2.40;2.20;;;;;;;24.57;50.29;99119.56;5062981;28;20222;-79
2022/09/03 09:14:48;;;;;;;2.90;2.30;;;;;;;24.52;50.60;99130.13;5064714;28;20478;-79
2022/09/03 09:17:34;;;;;;;2.80;2.60;;;;;;;24.49;50.76;99134.03;5069781;28;20483;-79
2022/09/03 09:20:08;;;;;;;4.40;2.63;;;;;;;24.44;51.03;99136.47;5072242;28;20451;-79
2022/09/03 09:22:39;;;;;;;2.90;2.27;;;;;;;24.40;51.13;99134.34;5069261;28;20480;-80
2022/09/03 09:25:13;;;;;;;3.27;2.27;;;;;;;24.36;51.33;99131.25;5069469;28;20471;-79
2022/09/03 09:27:50;;;;;;;3.63;3.33;;;;;;;24.35;51.00;99140.31;5067519;28;20837;-79
2022/09/03 09:30:16;;;;;;;3.17;2.87;;;;;;;24.32;51.03;99146.06;5070260;28;20467;-79
2022/09/03 09:32:42;;;;;;;2.03;1.90;;;;;;;24.28;51.11;99140.28;5071365;28;20525;-80
2022/09/03 09:35:11;;;;;;;1.93;1.73;;;;;;;24.25;51.10;99154.09;5066086;28;20575;-80
2022/09/03 09:38:05;;;;;;;2.40;1.77;;;;;;;24.16;51.20;99154.44;5066663;28;20219;-79
2022/09/03 09:40:34;;;;;;;4.37;2.00;;;;;;;24.08;51.20;99158.91;5053868;28;20893;-80
2022/09/03 09:43:20;;;;;;;4.23;2.07;;;;;;;23.97;51.54;99164.00;5065055;28;20683;-79
2022/09/03 09:45:51;;;;;;;2.17;1.83;;;;;;;23.88;52.05;99163.31;5064434;28;20481;-79
2022/09/03 09:48:30;;;;;;;5.03;2.40;;;;;;;23.79;52.09;99177.88;5068076;28;20490;-80
2022/09/03 09:51:21;;;;;;;2.70;1.93;;;;;;;23.64;52.67;99184.13;5071761;28;20452;-80
2022/09/03 09:53:47;;;;;;;2.47;2.10;;;;;;;23.52;52.79;99208.94;5065547;28;20448;-80
2022/09/03 09:56:23;;;;;;;1.90;1.70;;;;;;;23.23;53.23;99212.59;5067443;28;20851;-80
2022/09/03 09:58:51;;;;;;;2.43;2.23;;;;;;;22.89;54.29;99228.19;5069170;28;20804;-81
2022/09/03 10:01:25;;;;;;;3.20;2.07;;;;;;;22.57;55.48;99239.28;5059122;28;20450;-80
2022/09/03 10:03:54;;;;;;;4.17;2.00;;;;;;;22.33;55.89;99237.69;5068118;28;20436;-80
2022/09/03 10:09:12;;;;;;;1.60;1.50;;;;;;;21.82;59.38;99251.69;5064516;28;20966;-80
2022/09/03 10:18:06;;;;;;;3.33;2.23;;;;;;;21.05;63.77;99243.59;5049755;28;20538;-81
2022/09/03 10:25:06;;;;;;;3.03;2.23;;;;;;;20.62;66.68;99269.75;4976642;28;20488;-80
2022/09/03 10:28:09;;;;;;;3.03;2.07;;;;;;;20.43;67.34;99258.41;5070684;28;20712;-80
2022/09/03 10:37:38;;;;;;;4.07;2.20;;;;;;;19.93;68.75;99256.81;5060183;28;20350;-80
2022/09/03 10:40:56;;;;;;;2.93;1.10;;;;;;;19.77;69.36;99260.28;5067918;28;20460;-80
2022/09/03 10:43:50;;;;;;;3.10;2.37;;;;;;;19.65;69.54;99259.72;5056799;28;20541;-80
2022/09/03 10:46:34;;;;;;;1.57;1.40;;;;;;;19.55;69.40;99258.19;5071921;28;20492;-79
2022/09/03 10:49:06;;;;;;;1.50;1.07;;;;;;;19.51;69.87;99259.53;5054581;28;20466;-80
2022/09/03 10:56:07;;;;;;;1.50;1.10;;;;;;;19.57;69.76;99249.06;5062597;28;20502;-79
2022/09/03 10:58:55;;;;;;;2.20;1.10;;;;;;;19.58;69.54;99250.75;5068136;28;20463;-80
2022/09/03 11:02:14;;;;;;;1.50;1.10;;;;;;;19.57;69.80;99248.22;5062895;28;20878;-79
2022/09/03 11:05:06;;;;;;;2.03;0.90;;;;;;;19.60;69.74;99258.56;5066562;28;20617;-79
2022/09/03 11:07:59;;;;;;;1.20;1.10;;;;;;;19.63;69.43;99259.06;5068657;28;20714;-77
2022/09/03 11:10:28;;;;;;;1.63;1.10;;;;;;;19.69;69.13;99256.78;5066886;28;21097;-78
2022/09/03 11:13:10;;;;;;;2.20;1.20;;;;;;;19.80;69.10;99265.28;5064991;28;20479;-80
2022/09/03 11:16:00;;;;;;;2.70;1.37;;;;;;;20.01;68.70;99261.28;5082427;28;20481;-78
2022/09/03 11:19:20;;;;;;;2.20;1.07;;;;;;;20.27;68.20;99258.44;5102033;28;20539;-79
2022/09/03 11:25:57;;;;;;;2.50;0.80;;;;;;;20.88;66.44;99245.50;5083174;28;20483;-80
2022/09/03 11:28:57;;;;;;;2.77;1.00;;;;;;;21.21;65.34;99233.63;5113546;28;20646;-80
2022/09/03 11:43:25;;;;;;;2.60;1.27;;;;;;;22.48;60.96;99217.16;5115942;28;20577;-80
2022/09/03 11:47:24;;;;;;;;;;;;;;;;;;;;;
2022/09/03 11:54:19;;;;;;;1.40;1.10;;;;;;;22.60;58.10;99223.72;5074931;28;20584;-80
2022/09/03 11:57:45;;;;;;;1.20;1.10;;;;;;;22.58;57.71;99219.56;5071102;28;20904;-81
2022/09/03 12:03:50;;;;;;;1.03;0.93;;;;;;;22.78;57.79;99217.16;4324746;26;20478;-79
2022/09/03 12:06:34;;;;;;;1.03;0.90;;;;;;;22.99;57.71;99229.81;5061485;28;20547;-80
2022/09/03 12:09:10;;;;;;;1.00;0.80;;;;;;;23.09;56.41;99219.63;5054410;28;20464;-80
2022/09/03 12:11:43;;;;;;;1.10;1.00;;;;;;;23.23;55.84;99215.25;5045140;28;20488;-80
2022/09/03 12:14:19;;;;;;;1.80;0.80;;;;;;;23.34;55.05;99209.41;5045715;28;20471;-79
2022/09/03 12:16:55;;;;;;;0.77;0.77;;;;;;;23.43;54.83;99194.84;5042892;28;20543;-79
2022/09/03 12:19:34;;;;;;;1.10;0.90;;;;;;;23.51;54.41;99191.22;5035848;28;20518;-79
2022/09/03 12:22:02;;;;;;;1.10;0.70;;;;;;;23.61;54.06;99197.91;5040671;28;20492;-80
2022/09/03 12:24:30;;;;;;;0.80;0.70;;;;;;;23.68;53.22;99181.88;5038188;28;20457;-79
2022/09/03 12:26:59;;;;;;;1.00;0.80;;;;;;;23.70;52.76;99177.16;5036950;28;20466;-78
2022/09/03 12:29:27;;;;;;;0.80;0.63;;;;;;;23.78;52.54;99185.09;5038374;28;20644;-79
2022/09/03 12:31:55;;;;;;;0.90;0.80;;;;;;;23.87;52.26;99176.91;5035303;28;20999;-80
2022/09/03 12:34:22;;;;;;;1.57;0.90;;;;;;;23.94;51.71;99180.50;5014555;28;20554;-80
2022/09/03 12:36:52;;;;;;;1.87;0.70;;;;;;;24.03;51.45;99172.13;5033354;28;20432;-78
2022/09/03 12:39:22;;;;;;;1.50;0.70;;;;;;;24.07;50.86;99168.00;5025166;28;20438;-79
2022/09/03 12:42:02;;;;;;;0.73;0.67;;;;;;;24.02;50.45;99180.34;5032568;28;20455;-80
2022/09/03 12:44:31;;;;;;;0.80;0.60;;;;;;;23.94;50.78;99167.91;5035991;28;20708;-80
2022/09/03 12:47:17;;;;;;;1.77;0.70;;;;;;;23.90;50.91;99160.44;5029587;28;20457;-79
2022/09/03 12:49:45;;;;;;;1.00;0.83;;;;;;;23.88;50.96;99163.31;5043068;28;20560;-79
2022/09/03 12:52:22;;;;;;;1.00;0.90;;;;;;;23.87;51.33;99167.00;5032406;28;20493;-79